首页
METAR-TAF:

METAR-TAF

机场 :

特倫頓空軍基地

特伦顿, 安大略省, 加拿大

纬度: 44-07N, 经度: 077-32W, 海拔: 85米

当前天气观测

该预报发布于16分钟前的12:00 UTC
风速12节,风向西,有时为17节阵风
温度 -4°C
湿度 93%
气压 993 hPa
能見度: 2.0公里
阴天层高于500英尺
小雪, 低吹雪

METAR: CYTR 271200Z 26012G17KT 1 1/4SM -SN DRSN OVC005 M04/M05 A2933 RMK SN5SF3 VIS VRB 3/4-1 3/4 CIG VRB 3-7 /S03/ SLP939

时间: 07:16 (12:16 UTC)

预报

该预报发布于45分钟前的11:31 UTC
预报有效从27日的 12点(UTC)到 28日的 12点(UTC)
风速10节,风向西,有时为20节阵风
阴天层高于800英尺
小雪
短暂存在
从 27日的 12点(UTC)到 27日的 14点(UTC)
能見度: 6.4公里
阴天层高于1500英尺
小雪
成为
从 27日的 12点(UTC)到 27日的 14点(UTC)
风速15节,风向西,有时为25节阵风
从 27日的 1400点(UTC)
风速15节,风向西,有时为25节阵风
能見度: 10公里
阴天层高于2500英尺
短暂存在
从 27日的 14点(UTC)到 27日的 16点(UTC)
能見度: 3.2公里
阴天层高于1500英尺
小雪, 高吹雪
从 27日的 1600点(UTC)
风速20节,风向西,有时为35节阵风
能見度: 10公里
多云层高于2500英尺
短暂存在
从 27日的 16点(UTC)到 27日的 22点(UTC)
能見度: 6.4公里
小阵雪, 高吹雪
从 27日的 2200点(UTC)
风速20节,风向西,有时为35节阵风
能見度: 10公里
多云层高于2500英尺
小阵雪
成为
从 28日的 00点(UTC)到 28日的 02点(UTC)
风速15节,风向西,有时为30节阵风

TAF: CYTR 271131Z 2712/2812 28010G20KT 11/2SM -SN OVC008 TEMPO 2712/2714 4SM -SN OVC015 BECMG 2712/2714 28015G25KT FM271400 28015G25KT P6SM OVC025 TEMPO 2714/2716 2SM -SN BLSN OVC015 FM271600 27020G35KT P6SM BKN025 TEMPO 2716/2722 4SM -SHSN BLSN FM272200 27020G35KT P6SM -SHSN BKN025 BECMG 2800/2802 27015G30KT RMK NXT FCST BY 271800Z

超过4000个机场的气象观测和天气预报(METAR&TAF报告)。

可查询的气象台以黄色和红色小点在地图上表示。

将鼠标移到小点上方,可查看气象台名称。

然后点击查看天气观测和预报。

如需切换地图:点击带黑十字的绿色按钮放大地图;点击带横线的绿色按钮缩小地图;或者点击绿色箭头查看邻近地区的地图。


METAR-TAF: